createdAt,value
2018-09-03T00:00:14.251Z,16.10
2018-09-03T00:02:45.676Z,16.10
2018-09-03T00:05:16.103Z,16.10
2018-09-03T00:07:46.519Z,16.00
2018-09-03T00:10:17.141Z,16.00
2018-09-03T00:12:47.561Z,16.00
2018-09-03T00:15:18.726Z,15.90
2018-09-03T00:17:49.111Z,15.80
2018-09-03T00:20:19.515Z,16.00
2018-09-03T00:22:50.677Z,15.90
2018-09-03T00:25:21.053Z,15.90
2018-09-03T00:27:51.481Z,15.90
2018-09-03T00:30:21.859Z,15.90
2018-09-03T00:35:53.676Z,16.00
2018-09-03T00:38:35.774Z,15.90
2018-09-03T00:41:06.169Z,15.80
2018-09-03T00:43:39.540Z,15.80
2018-09-03T00:46:49.259Z,15.80
2018-09-03T00:49:19.639Z,15.90
2018-09-03T00:51:50.021Z,15.80
2018-09-03T00:54:21.458Z,15.80
2018-09-03T00:56:53.643Z,15.80
2018-09-03T00:59:28.150Z,15.70
2018-09-03T01:01:58.539Z,15.70
2018-09-03T01:04:28.906Z,15.80
2018-09-03T01:06:59.331Z,15.80
2018-09-03T01:09:29.711Z,15.70
2018-09-03T01:12:00.095Z,15.70
2018-09-03T01:14:30.498Z,15.70
2018-09-03T01:17:01.664Z,15.60
2018-09-03T01:19:32.038Z,15.60
2018-09-03T01:22:02.456Z,15.60
2018-09-03T01:24:32.854Z,15.50
2018-09-03T01:27:07.257Z,15.30
2018-09-03T01:29:37.703Z,15.40
2018-09-03T01:32:07.996Z,15.50
2018-09-03T01:34:39.151Z,15.40
2018-09-03T01:37:09.565Z,15.40
2018-09-03T01:39:40.727Z,15.40
2018-09-03T01:42:11.109Z,15.40
2018-09-03T01:44:41.542Z,15.40
2018-09-03T01:47:11.917Z,15.40
2018-09-03T01:49:44.341Z,15.40
2018-09-03T01:52:14.753Z,15.40
2018-09-03T01:54:45.132Z,15.40
2018-09-03T01:57:15.512Z,15.30
2018-09-03T01:59:45.905Z,15.30
2018-09-03T02:02:22.426Z,15.30
2018-09-03T02:04:52.841Z,15.30
2018-09-03T02:07:23.217Z,15.30
2018-09-03T02:09:53.593Z,15.30
2018-09-03T02:12:23.993Z,15.30
2018-09-03T02:14:54.306Z,15.30
2018-09-03T02:17:28.817Z,15.30
2018-09-03T02:19:59.196Z,15.10
2018-09-03T02:22:29.571Z,15.10
2018-09-03T02:24:59.984Z,15.20
2018-09-03T02:27:30.379Z,15.10
2018-09-03T02:30:00.770Z,15.10
2018-09-03T02:32:31.184Z,15.00
2018-09-03T02:35:01.564Z,15.00
2018-09-03T02:37:32.724Z,15.00
2018-09-03T02:40:03.907Z,14.90
2018-09-03T02:42:38.395Z,14.90
2018-09-03T02:45:09.536Z,14.90
2018-09-03T02:47:39.963Z,14.80
2018-09-03T02:50:11.047Z,15.00
2018-09-03T02:53:00.760Z,15.00
2018-09-03T02:55:31.144Z,15.00
2018-09-03T02:58:01.503Z,15.00
2018-09-03T03:00:31.927Z,14.90
2018-09-03T03:03:02.302Z,14.90
2018-09-03T03:05:32.683Z,14.90
2018-09-03T03:08:03.121Z,14.80
2018-09-03T03:10:33.515Z,14.90
2018-09-03T03:13:23.033Z,14.80
2018-09-03T03:15:53.410Z,14.80
2018-09-03T03:18:30.981Z,14.70
2018-09-03T03:21:01.373Z,14.70
2018-09-03T03:23:31.765Z,14.70
2018-09-03T03:26:02.158Z,14.70
2018-09-03T03:28:32.550Z,14.60
2018-09-03T03:31:02.869Z,14.70
2018-09-03T03:33:33.284Z,14.60
2018-09-03T03:36:04.344Z,14.50
2018-09-03T03:38:34.736Z,14.50
2018-09-03T03:41:12.469Z,14.50
2018-09-03T03:43:42.860Z,14.50
2018-09-03T03:46:15.508Z,14.50
2018-09-03T03:48:45.932Z,14.50
2018-09-03T03:51:17.258Z,14.60
2018-09-03T03:53:48.400Z,14.60
2018-09-03T03:56:19.061Z,14.50
2018-09-03T03:58:49.464Z,14.60
2018-09-03T04:01:19.837Z,14.60
2018-09-03T04:03:55.300Z,14.50
2018-09-03T04:06:25.618Z,14.60
2018-09-03T04:09:15.413Z,14.60
2018-09-03T04:11:45.814Z,14.60
2018-09-03T04:14:16.211Z,14.60
2018-09-03T04:16:49.397Z,14.50
2018-09-03T04:19:21.886Z,14.50
2018-09-03T04:21:52.289Z,14.50
2018-09-03T04:24:23.478Z,14.30
2018-09-03T04:26:53.888Z,14.30
2018-09-03T04:29:24.214Z,14.40
2018-09-03T04:31:54.630Z,14.30
2018-09-03T04:34:25.787Z,14.40
2018-09-03T04:36:56.166Z,14.40
2018-09-03T04:39:26.564Z,14.40
2018-09-03T04:42:03.080Z,14.30
2018-09-03T04:44:33.460Z,14.40
2018-09-03T04:47:10.025Z,14.40
2018-09-03T04:49:40.401Z,14.50
2018-09-03T04:55:03.182Z,14.40
2018-09-03T04:57:33.577Z,14.40
2018-09-03T05:00:07.033Z,14.40
2018-09-03T05:02:37.449Z,14.50
2018-09-03T05:05:10.606Z,14.50
2018-09-03T05:07:40.946Z,14.50
2018-09-03T05:10:12.125Z,14.40
2018-09-03T05:12:42.748Z,14.40
2018-09-03T05:15:13.141Z,14.40
2018-09-03T05:17:43.564Z,14.40
2018-09-03T05:20:13.956Z,14.40
2018-09-03T05:22:44.337Z,14.50
2018-09-03T05:25:16.181Z,14.40
2018-09-03T05:27:46.572Z,14.40
2018-09-03T05:30:16.966Z,14.50
2018-09-03T05:32:47.387Z,14.60
2018-09-03T05:35:18.543Z,14.60
2018-09-03T05:37:49.113Z,14.60
2018-09-03T05:40:19.596Z,14.60
2018-09-03T05:42:49.909Z,14.70
2018-09-03T05:45:20.987Z,14.80
2018-09-03T05:47:55.488Z,14.80
2018-09-03T05:50:26.187Z,14.80
2018-09-03T05:52:56.447Z,14.80
2018-09-03T05:55:26.845Z,15.00
2018-09-03T05:57:57.245Z,15.10
2018-09-03T06:00:27.645Z,15.10
2018-09-03T06:03:00.102Z,15.20
2018-09-03T06:05:30.491Z,15.00
2018-09-03T06:08:00.891Z,15.00
2018-09-03T06:10:35.485Z,15.10
2018-09-03T06:13:05.790Z,14.90
2018-09-03T06:15:36.164Z,15.10
2018-09-03T06:18:07.588Z,15.20
2018-09-03T06:20:40.029Z,15.20
2018-09-03T06:23:11.169Z,15.40
2018-09-03T06:25:41.578Z,15.40
2018-09-03T06:28:11.963Z,15.30
2018-09-03T06:30:42.350Z,15.40
2018-09-03T06:33:12.822Z,15.40
2018-09-03T06:35:43.228Z,15.40
2018-09-03T06:38:13.802Z,15.50
2018-09-03T06:40:48.296Z,15.60
2018-09-03T06:43:18.863Z,15.30
2018-09-03T06:45:49.298Z,15.50
2018-09-03T06:48:19.646Z,15.60
2018-09-03T06:50:50.253Z,15.60
2018-09-03T06:53:20.646Z,15.40
2018-09-03T06:55:51.066Z,15.60
2018-09-03T06:58:21.397Z,16.40
2018-09-03T07:00:51.719Z,16.10
2018-09-03T07:03:22.151Z,16.00
2018-09-03T07:05:52.573Z,16.00
2018-09-03T07:08:23.189Z,16.10
2018-09-03T07:10:53.618Z,16.10
2018-09-03T07:13:24.019Z,16.20
2018-09-03T07:15:55.188Z,16.20
2018-09-03T07:18:25.641Z,16.20
2018-09-03T07:20:56.059Z,16.20
2018-09-03T07:23:26.647Z,16.30
2018-09-03T07:25:57.105Z,16.30
2018-09-03T07:28:27.695Z,16.30
2018-09-03T07:30:58.164Z,16.40
2018-09-03T07:33:28.518Z,16.40
2018-09-03T07:35:59.937Z,16.50
2018-09-03T07:38:30.340Z,16.60
2018-09-03T07:41:00.773Z,16.50
2018-09-03T07:43:31.936Z,16.60
2018-09-03T07:46:02.329Z,16.60
2018-09-03T07:48:34.784Z,16.60
2018-09-03T07:51:05.223Z,16.60
2018-09-03T07:53:35.590Z,16.50
2018-09-03T07:56:06.007Z,16.50
2018-09-03T07:58:36.405Z,16.60
2018-09-03T08:01:06.857Z,16.70
2018-09-03T08:03:41.320Z,16.70
2018-09-03T08:06:12.413Z,16.70
2018-09-03T08:08:42.726Z,16.90
2018-09-03T08:11:13.192Z,16.80
2018-09-03T08:13:43.492Z,16.90
2018-09-03T08:16:15.941Z,17.00
2018-09-03T08:18:46.345Z,17.10
2018-09-03T08:21:18.771Z,17.00
2018-09-03T08:23:49.155Z,17.00
2018-09-03T08:26:25.711Z,17.10
2018-09-03T08:28:56.115Z,17.10
2018-09-03T08:31:26.507Z,17.10
2018-09-03T08:33:56.927Z,17.10
2018-09-03T08:36:27.307Z,17.10
2018-09-03T08:38:57.693Z,17.20
2018-09-03T08:41:28.116Z,17.10
2018-09-03T08:43:58.516Z,17.20
2018-09-03T08:46:48.301Z,17.20
2018-09-03T08:49:21.763Z,17.40
2018-09-03T08:51:52.143Z,17.50
2018-09-03T08:54:22.533Z,17.50
2018-09-03T08:56:56.005Z,17.50
2018-09-03T08:59:29.211Z,17.60
2018-09-03T09:01:59.604Z,17.60
2018-09-03T09:04:30.770Z,17.70
2018-09-03T09:09:48.602Z,17.70
2018-09-03T09:12:19.015Z,17.80
2018-09-03T09:14:49.580Z,17.90
2018-09-03T09:17:19.963Z,18.10
2018-09-03T09:19:50.378Z,18.10
2018-09-03T09:22:20.758Z,18.20
2018-09-03T09:24:51.911Z,18.40
2018-09-03T09:27:27.372Z,18.30
2018-09-03T09:29:57.749Z,18.50
2018-09-03T09:32:28.128Z,18.60
2018-09-03T09:34:58.547Z,18.70
2018-09-03T09:37:28.932Z,18.80
2018-09-03T09:39:59.330Z,18.80
2018-09-03T09:42:49.098Z,18.80
2018-09-03T09:45:22.549Z,18.80
2018-09-03T09:47:52.934Z,19.00
2018-09-03T09:50:43.747Z,19.00
2018-09-03T09:53:33.225Z,19.20
2018-09-03T09:56:03.832Z,19.20
2018-09-03T09:58:37.301Z,19.10
2018-09-03T10:01:07.679Z,19.10
2018-09-03T10:03:38.103Z,19.20
2018-09-03T10:06:27.776Z,19.30
2018-09-03T10:08:59.144Z,19.40
2018-09-03T10:11:29.539Z,19.40
2018-09-03T10:13:59.923Z,19.40
2018-09-03T10:16:30.345Z,19.50
2018-09-03T10:19:03.582Z,19.60
2018-09-03T10:21:33.955Z,19.60
2018-09-03T10:24:04.309Z,19.60
2018-09-03T10:26:34.695Z,19.60
2018-09-03T10:29:05.261Z,19.60
2018-09-03T10:31:35.673Z,19.60
2018-09-03T10:34:08.115Z,19.70
2018-09-03T10:36:39.530Z,19.60
2018-09-03T10:39:09.961Z,19.60
2018-09-03T10:41:40.286Z,19.70
2018-09-03T10:44:10.873Z,19.60
2018-09-03T10:46:41.301Z,19.50
2018-09-03T10:49:11.680Z,19.60
2018-09-03T10:51:47.225Z,19.60
2018-09-03T10:54:17.612Z,19.60
2018-09-03T10:56:49.778Z,19.60
2018-09-03T10:59:20.958Z,19.70
2018-09-03T11:01:51.344Z,19.70
2018-09-03T11:04:21.726Z,20.10
2018-09-03T11:06:52.130Z,20.20
2018-09-03T11:09:22.541Z,20.00
2018-09-03T11:11:53.704Z,20.10
2018-09-03T11:14:24.241Z,20.10
2018-09-03T11:16:59.657Z,20.30
2018-09-03T11:19:30.831Z,20.50
2018-09-03T11:22:01.148Z,20.50
2018-09-03T11:24:31.569Z,20.50
2018-09-03T11:27:01.935Z,20.50
2018-09-03T11:29:32.326Z,20.30
2018-09-03T11:32:02.637Z,20.30
2018-09-03T11:34:34.450Z,20.20
2018-09-03T11:37:04.841Z,20.10
2018-09-03T11:39:35.221Z,20.20
2018-09-03T11:42:05.635Z,20.20
2018-09-03T11:44:36.019Z,20.50
2018-09-03T11:47:06.424Z,20.80
2018-09-03T11:49:36.813Z,21.00
2018-09-03T11:52:07.203Z,20.90
2018-09-03T11:54:37.610Z,20.90
2018-09-03T11:57:08.008Z,20.80
2018-09-03T11:59:38.391Z,20.80
2018-09-03T12:02:08.789Z,21.00
2018-09-03T12:04:39.314Z,21.00
2018-09-03T12:07:10.461Z,21.30
2018-09-03T12:09:40.852Z,21.20
2018-09-03T12:12:11.270Z,21.30
2018-09-03T12:14:41.657Z,21.20
2018-09-03T12:17:12.065Z,21.10
2018-09-03T12:19:43.227Z,21.30
2018-09-03T12:22:13.614Z,21.30
2018-09-03T12:24:44.027Z,21.30
2018-09-03T12:27:14.390Z,21.20
2018-09-03T12:29:44.795Z,21.20
2018-09-03T12:32:15.183Z,21.20
2018-09-03T12:34:46.606Z,21.30
2018-09-03T12:37:17.019Z,21.30
2018-09-03T12:43:01.008Z,21.30
2018-09-03T12:45:31.308Z,21.40
2018-09-03T12:48:02.473Z,21.50
2018-09-03T12:50:32.912Z,21.50
2018-09-03T12:53:03.989Z,21.50
2018-09-03T12:55:34.379Z,21.50
2018-09-03T12:58:04.792Z,21.60
2018-09-03T13:00:38.677Z,21.50
2018-09-03T13:03:07.451Z,21.40
2018-09-03T13:05:37.807Z,21.40
2018-09-03T13:08:09.649Z,21.40
2018-09-03T13:10:40.049Z,21.40
2018-09-03T13:13:11.973Z,21.40
2018-09-03T13:15:42.390Z,21.40
2018-09-03T13:18:13.729Z,21.30
2018-09-03T13:20:44.886Z,21.20
2018-09-03T13:23:15.314Z,21.30
2018-09-03T13:25:45.642Z,21.20
2018-09-03T13:28:16.047Z,21.20
2018-09-03T13:30:46.546Z,21.10
2018-09-03T13:33:16.902Z,21.00
2018-09-03T13:35:48.489Z,20.90
2018-09-03T13:38:18.905Z,20.90
2018-09-03T13:40:49.283Z,20.90
2018-09-03T13:43:20.554Z,21.00
2018-09-03T13:45:50.969Z,21.00
2018-09-03T13:48:21.371Z,21.00
2018-09-03T13:50:56.907Z,21.00
2018-09-03T13:53:31.397Z,21.00
2018-09-03T13:56:02.577Z,21.10
2018-09-03T13:58:33.059Z,21.00
2018-09-03T14:01:04.301Z,21.00
2018-09-03T14:03:34.660Z,20.90
2018-09-03T14:06:05.047Z,21.00
2018-09-03T14:08:36.452Z,21.00
2018-09-03T14:11:06.887Z,20.90
2018-09-03T14:13:39.333Z,20.90
2018-09-03T14:16:09.734Z,20.90
2018-09-03T14:18:40.136Z,20.80
2018-09-03T14:21:10.513Z,20.70
2018-09-03T14:23:40.913Z,20.80
2018-09-03T14:26:11.252Z,20.70
2018-09-03T14:28:41.639Z,20.80
2018-09-03T14:31:12.032Z,20.80
2018-09-03T14:33:43.458Z,20.70
2018-09-03T14:36:13.865Z,20.70
2018-09-03T14:38:45.031Z,20.70
2018-09-03T14:41:16.220Z,20.80
2018-09-03T14:43:52.743Z,20.70
2018-09-03T14:46:23.939Z,20.80
2018-09-03T14:49:01.485Z,20.80
2018-09-03T14:51:32.665Z,20.80
2018-09-03T14:54:03.056Z,20.80
2018-09-03T14:56:33.445Z,20.90
2018-09-03T14:59:03.861Z,20.90
2018-09-03T15:01:34.178Z,20.90
2018-09-03T15:04:25.941Z,21.00
2018-09-03T15:06:56.330Z,21.30
2018-09-03T15:09:30.992Z,21.20
2018-09-03T15:12:01.396Z,21.10
2018-09-03T15:14:31.794Z,21.00
2018-09-03T15:17:02.380Z,21.10
2018-09-03T15:19:32.729Z,21.00
2018-09-03T15:22:03.114Z,21.10
2018-09-03T15:24:33.493Z,21.10
2018-09-03T15:27:03.951Z,21.10
2018-09-03T15:29:35.046Z,21.10
2018-09-03T15:32:06.195Z,21.00
2018-09-03T15:34:37.366Z,21.00
2018-09-03T15:37:08.766Z,21.00
2018-09-03T15:39:41.767Z,21.00
2018-09-03T15:42:12.941Z,21.00
2018-09-03T15:44:43.293Z,21.00
2018-09-03T15:47:13.679Z,21.00
2018-09-03T15:49:45.090Z,21.00
2018-09-03T15:52:15.476Z,21.00
2018-09-03T15:54:49.949Z,21.10
2018-09-03T15:57:20.367Z,21.00
2018-09-03T15:59:56.440Z,21.10
2018-09-03T16:05:10.561Z,21.00
2018-09-03T16:07:40.972Z,21.10
2018-09-03T16:10:11.367Z,21.00
2018-09-03T16:12:42.526Z,21.00
2018-09-03T16:15:12.938Z,21.00
2018-09-03T16:17:44.097Z,21.00
2018-09-03T16:20:17.380Z,21.00
2018-09-03T16:22:47.789Z,21.00
2018-09-03T16:25:19.360Z,21.00
2018-09-03T16:27:50.691Z,21.00
2018-09-03T16:30:23.625Z,21.00
2018-09-03T16:32:54.556Z,21.00
2018-09-03T16:35:26.974Z,20.90
2018-09-03T16:37:57.365Z,20.90
2018-09-03T16:40:27.729Z,20.90
2018-09-03T16:42:58.159Z,20.90
2018-09-03T16:45:28.495Z,20.90
2018-09-03T16:47:58.901Z,20.90
2018-09-03T16:50:34.399Z,20.90
2018-09-03T16:53:07.206Z,20.80
2018-09-03T16:55:38.628Z,20.90
2018-09-03T16:58:09.812Z,20.80
2018-09-03T17:00:40.211Z,20.80
2018-09-03T17:03:11.373Z,20.70
2018-09-03T17:05:41.962Z,20.70
2018-09-03T17:08:13.370Z,20.70
2018-09-03T17:10:43.539Z,20.70
2018-09-03T17:13:14.717Z,20.70
2018-09-03T17:15:45.123Z,20.70
2018-09-03T17:18:16.292Z,20.70
2018-09-03T17:20:46.719Z,20.70
2018-09-03T17:23:17.092Z,20.60
2018-09-03T17:25:47.482Z,20.60
2018-09-03T17:28:23.033Z,20.60
2018-09-03T17:31:14.605Z,20.60
2018-09-03T17:33:45.734Z,20.60
2018-09-03T17:36:16.295Z,20.60
2018-09-03T17:38:48.481Z,20.60
2018-09-03T17:41:19.093Z,20.60
2018-09-03T17:43:49.539Z,20.50
2018-09-03T17:46:19.893Z,20.50
2018-09-03T17:48:54.398Z,20.50
2018-09-03T17:51:24.779Z,20.50
2018-09-03T17:53:55.194Z,20.40
2018-09-03T17:56:25.635Z,20.40
2018-09-03T17:58:56.070Z,20.30
2018-09-03T18:01:27.270Z,20.30
2018-09-03T18:04:05.012Z,20.30
2018-09-03T18:06:37.979Z,20.30
2018-09-03T18:09:08.380Z,20.30
2018-09-03T18:11:47.617Z,20.20
2018-09-03T18:14:38.141Z,20.20
2018-09-03T18:17:08.780Z,20.20
2018-09-03T18:19:39.156Z,20.20
2018-09-03T18:22:09.555Z,20.20
2018-09-03T18:24:39.985Z,20.10
2018-09-03T18:27:10.388Z,20.10
2018-09-03T18:29:40.802Z,20.10
2018-09-03T18:32:11.154Z,20.10
2018-09-03T18:34:42.319Z,20.00
2018-09-03T18:37:12.841Z,20.00
2018-09-03T18:39:43.131Z,20.00
2018-09-03T18:42:13.530Z,20.00
2018-09-03T18:44:46.996Z,19.90
2018-09-03T18:47:17.363Z,19.90
2018-09-03T18:49:47.708Z,19.90
2018-09-03T18:52:18.275Z,19.90
2018-09-03T18:54:48.703Z,19.90
2018-09-03T18:57:19.075Z,19.80
2018-09-03T18:59:49.506Z,19.80
2018-09-03T19:02:20.945Z,19.80
2018-09-03T19:04:51.349Z,19.70
2018-09-03T19:07:21.682Z,19.70
2018-09-03T19:09:53.212Z,19.60
2018-09-03T19:12:27.645Z,19.60
2018-09-03T19:14:57.981Z,19.60
2018-09-03T19:17:28.439Z,19.60
2018-09-03T19:19:58.836Z,19.50
2018-09-03T19:22:29.232Z,19.40
2018-09-03T19:25:00.592Z,19.40
2018-09-03T19:27:30.961Z,19.40
2018-09-03T19:30:01.339Z,19.40
2018-09-03T19:32:32.040Z,19.40
2018-09-03T19:35:02.426Z,19.50
2018-09-03T19:40:21.077Z,19.40
2018-09-03T19:42:51.708Z,19.40
2018-09-03T19:45:26.625Z,19.40
2018-09-03T19:47:57.783Z,19.30
2018-09-03T19:50:28.162Z,19.30
2018-09-03T19:53:01.049Z,19.30
2018-09-03T19:55:31.411Z,19.30
2018-09-03T19:58:01.800Z,19.30
2018-09-03T20:00:32.222Z,19.30
2018-09-03T20:03:02.625Z,19.30
2018-09-03T20:05:33.017Z,19.20
2018-09-03T20:08:04.182Z,19.30
2018-09-03T20:10:34.559Z,19.30
2018-09-03T20:13:04.928Z,19.30
2018-09-03T20:15:35.344Z,19.20
2018-09-03T20:18:05.761Z,19.20
2018-09-03T20:20:36.149Z,19.20
2018-09-03T20:23:06.843Z,19.20
2018-09-03T20:25:58.774Z,19.20
2018-09-03T20:28:32.148Z,19.30
2018-09-03T20:31:02.556Z,19.30
2018-09-03T20:33:32.893Z,19.20
2018-09-03T20:36:03.303Z,19.30
2018-09-03T20:38:33.684Z,19.20
2018-09-03T20:41:04.072Z,19.20
2018-09-03T20:43:35.214Z,19.20
2018-09-03T20:46:05.590Z,19.20
2018-09-03T20:48:35.965Z,19.20
2018-09-03T20:51:06.378Z,19.20
2018-09-03T20:53:36.752Z,19.20
2018-09-03T20:56:07.132Z,19.10
2018-09-03T20:58:37.543Z,19.10
2018-09-03T21:01:07.922Z,19.10
2018-09-03T21:03:38.237Z,19.00
2018-09-03T21:06:09.414Z,19.10
2018-09-03T21:08:39.794Z,19.10
2018-09-03T21:11:10.106Z,19.10
2018-09-03T21:13:40.515Z,19.10
2018-09-03T21:16:10.908Z,19.10
2018-09-03T21:18:41.290Z,19.10
2018-09-03T21:21:11.691Z,19.10
2018-09-03T21:23:42.053Z,19.10
2018-09-03T21:26:12.428Z,19.10
2018-09-03T21:28:42.934Z,19.10
2018-09-03T21:31:14.186Z,19.00
2018-09-03T21:33:44.564Z,19.00
2018-09-03T21:36:14.978Z,19.00
2018-09-03T21:38:45.403Z,19.00
2018-09-03T21:41:36.204Z,19.00
2018-09-03T21:44:28.009Z,19.00
2018-09-03T21:46:58.420Z,19.00
2018-09-03T21:49:28.797Z,19.00
2018-09-03T21:52:00.220Z,19.00
2018-09-03T21:54:30.609Z,19.00
2018-09-03T21:57:01.769Z,19.00
2018-09-03T21:59:32.146Z,18.90
2018-09-03T22:02:02.583Z,19.00
2018-09-03T22:04:32.962Z,19.00
2018-09-03T22:07:03.347Z,18.90
2018-09-03T22:09:33.753Z,18.90
2018-09-03T22:12:04.068Z,18.90
2018-09-03T22:14:41.972Z,18.90
2018-09-03T22:17:12.293Z,18.90
2018-09-03T22:20:04.875Z,18.90
2018-09-03T22:22:35.256Z,18.90
2018-09-03T22:25:08.705Z,18.90
2018-09-03T22:27:39.108Z,18.90
2018-09-03T22:30:09.512Z,18.90
2018-09-03T22:32:46.056Z,18.90
2018-09-03T22:35:17.212Z,18.90
2018-09-03T22:37:47.601Z,18.80
2018-09-03T22:40:17.999Z,18.90
2018-09-03T22:42:48.390Z,18.90
2018-09-03T22:45:18.782Z,18.70
2018-09-03T22:47:49.437Z,18.80
2018-09-03T22:50:20.855Z,18.80
2018-09-03T22:52:51.245Z,18.80
2018-09-03T22:55:28.796Z,18.80
2018-09-03T22:57:59.879Z,18.80
2018-09-03T23:00:36.443Z,18.80
2018-09-03T23:03:06.759Z,18.70
2018-09-03T23:05:37.109Z,18.70
2018-09-03T23:08:07.468Z,18.60
2018-09-03T23:10:37.857Z,18.60
2018-09-03T23:13:15.402Z,18.70
2018-09-03T23:15:46.489Z,18.70
2018-09-03T23:18:20.921Z,18.70
2018-09-03T23:21:12.714Z,18.60
2018-09-03T23:23:43.109Z,18.70
2018-09-03T23:26:13.471Z,18.70
2018-09-03T23:28:43.859Z,18.70
2018-09-03T23:31:14.266Z,18.60
2018-09-03T23:33:45.668Z,18.60
2018-09-03T23:36:16.057Z,18.50
2018-09-03T23:38:46.467Z,18.50
2018-09-03T23:41:16.841Z,18.40
2018-09-03T23:43:47.988Z,18.50
2018-09-03T23:46:18.384Z,18.50
2018-09-03T23:48:48.757Z,18.50
2018-09-03T23:51:19.142Z,18.50
2018-09-03T23:56:35.048Z,18.40
2018-09-03T23:59:05.454Z,18.40
